createdAt,value
2019-05-29T00:00:18.273Z,89.75
2019-05-29T00:02:56.482Z,89.86
2019-05-29T00:05:38.483Z,89.95
2019-05-29T00:08:18.535Z,89.83
2019-05-29T00:10:50.742Z,89.84
2019-05-29T00:13:24.282Z,89.79
2019-05-29T00:15:57.182Z,90.21
2019-05-29T00:18:29.752Z,90.16
2019-05-29T00:21:02.614Z,89.91
2019-05-29T00:23:35.141Z,89.77
2019-05-29T00:26:08.298Z,89.55
2019-05-29T00:28:41.262Z,89.63
2019-05-29T00:31:14.073Z,89.76
2019-05-29T00:33:46.662Z,89.99
2019-05-29T00:36:19.195Z,90.09
2019-05-29T00:38:51.832Z,90.37
2019-05-29T00:41:24.432Z,90.38
2019-05-29T00:43:57.012Z,90.20
2019-05-29T00:46:29.675Z,90.41
2019-05-29T00:49:02.282Z,90.22
2019-05-29T00:51:34.793Z,90.07
2019-05-29T00:54:08.238Z,90.20
2019-05-29T00:56:40.842Z,90.31
2019-05-29T00:59:13.352Z,90.39
2019-05-29T01:01:45.783Z,90.70
2019-05-29T01:04:18.362Z,91.00
2019-05-29T01:06:50.932Z,90.93
2019-05-29T01:09:24.483Z,91.14
2019-05-29T01:11:57.061Z,91.06
2019-05-29T01:14:32.672Z,90.47
2019-05-29T01:17:05.133Z,90.51
2019-05-29T01:19:37.682Z,90.56
2019-05-29T01:22:12.303Z,90.61
2019-05-29T01:24:44.972Z,90.71
2019-05-29T01:27:18.878Z,90.65
2019-05-29T01:29:51.534Z,90.46
2019-05-29T01:32:24.023Z,90.52
2019-05-29T01:34:56.767Z,90.53
2019-05-29T01:37:29.224Z,90.51
2019-05-29T01:40:16.602Z,90.52
2019-05-29T01:42:35.901Z,90.63
2019-05-29T01:45:08.968Z,90.49
2019-05-29T01:47:41.462Z,90.37
2019-05-29T01:50:15.581Z,90.31
2019-05-29T01:52:50.283Z,90.50
2019-05-29T01:55:23.827Z,90.56
2019-05-29T01:57:56.492Z,90.57
2019-05-29T02:00:29.063Z,90.60
2019-05-29T02:03:02.214Z,90.74
2019-05-29T02:05:34.845Z,90.77
2019-05-29T02:08:07.482Z,90.67
2019-05-29T02:10:40.903Z,90.66
2019-05-29T02:13:17.267Z,90.66
2019-05-29T02:15:49.962Z,90.80
2019-05-29T02:18:23.028Z,90.84
2019-05-29T02:20:55.672Z,90.78
2019-05-29T02:23:28.352Z,90.90
2019-05-29T02:26:02.365Z,90.85
2019-05-29T02:28:35.272Z,90.89
2019-05-29T02:31:07.941Z,90.91
2019-05-29T02:33:40.703Z,91.01
2019-05-29T02:36:13.412Z,90.72
2019-05-29T02:38:45.984Z,90.67
2019-05-29T02:41:19.122Z,90.56
2019-05-29T02:43:52.931Z,90.50
2019-05-29T02:46:28.568Z,90.72
2019-05-29T02:49:01.345Z,90.78
2019-05-29T02:51:33.967Z,90.71
2019-05-29T02:54:06.668Z,90.87
2019-05-29T02:56:42.481Z,90.87
2019-05-29T02:59:13.535Z,91.18
2019-05-29T03:01:49.330Z,91.01
2019-05-29T03:04:26.218Z,91.02
2019-05-29T03:06:59.564Z,90.89
2019-05-29T03:09:32.701Z,91.28
2019-05-29T03:12:05.570Z,91.22
2019-05-29T03:14:38.163Z,91.26
2019-05-29T03:17:12.172Z,91.45
2019-05-29T03:19:45.774Z,91.40
2019-05-29T03:22:18.417Z,91.65
2019-05-29T03:24:51.212Z,91.95
2019-05-29T03:27:23.652Z,92.00
2019-05-29T03:29:56.247Z,91.97
2019-05-29T03:32:32.433Z,92.27
2019-05-29T03:35:02.905Z,91.92
2019-05-29T03:37:35.684Z,92.24
2019-05-29T03:40:08.427Z,92.39
2019-05-29T03:42:41.075Z,92.35
2019-05-29T03:45:14.069Z,92.58
2019-05-29T03:47:46.816Z,93.16
2019-05-29T03:50:19.716Z,92.66
2019-05-29T03:52:52.232Z,92.65
2019-05-29T03:55:24.806Z,92.56
2019-05-29T03:57:57.623Z,92.71
2019-05-29T04:00:38.899Z,92.59
2019-05-29T04:03:08.774Z,92.99
2019-05-29T04:05:41.588Z,93.03
2019-05-29T04:08:15.994Z,93.47
2019-05-29T04:10:51.734Z,93.03
2019-05-29T04:13:27.463Z,92.93
2019-05-29T04:16:02.175Z,92.89
2019-05-29T04:18:35.941Z,93.30
2019-05-29T04:21:11.485Z,93.16
2019-05-29T04:23:46.415Z,93.22
2019-05-29T04:26:20.652Z,93.52
2019-05-29T04:28:53.782Z,93.14
2019-05-29T04:31:28.059Z,92.92
2019-05-29T04:34:00.878Z,92.73
2019-05-29T04:36:34.862Z,92.58
2019-05-29T04:39:08.409Z,92.95
2019-05-29T04:41:45.255Z,93.12
2019-05-29T04:44:17.934Z,93.35
2019-05-29T04:47:07.099Z,92.70
2019-05-29T04:49:29.212Z,92.85
2019-05-29T04:52:01.793Z,92.52
2019-05-29T04:54:35.403Z,92.54
2019-05-29T04:57:10.182Z,92.45
2019-05-29T04:59:42.902Z,92.32
2019-05-29T05:02:15.532Z,92.39
2019-05-29T05:04:49.512Z,92.37
2019-05-29T05:07:22.354Z,92.39
2019-05-29T05:09:54.943Z,91.75
2019-05-29T05:12:27.713Z,91.51
2019-05-29T05:15:03.521Z,91.72
2019-05-29T05:17:36.278Z,91.75
2019-05-29T05:20:09.193Z,91.81
2019-05-29T05:22:41.652Z,91.59
2019-05-29T05:25:16.121Z,91.58
2019-05-29T05:27:53.322Z,91.35
2019-05-29T05:30:25.922Z,91.85
2019-05-29T05:32:58.797Z,91.85
2019-05-29T05:35:32.587Z,91.49
2019-05-29T05:38:06.711Z,90.96
2019-05-29T05:40:41.873Z,91.21
2019-05-29T05:43:23.524Z,91.42
2019-05-29T05:45:49.894Z,91.25
2019-05-29T05:48:22.623Z,91.16
2019-05-29T05:50:58.752Z,91.12
2019-05-29T05:53:31.395Z,90.97
2019-05-29T05:56:04.497Z,91.11
2019-05-29T05:58:37.823Z,91.14
2019-05-29T06:01:11.905Z,91.14
2019-05-29T06:03:44.883Z,91.41
2019-05-29T06:06:19.382Z,91.12
2019-05-29T06:08:56.112Z,91.10
2019-05-29T06:11:30.673Z,91.35
2019-05-29T06:14:04.553Z,91.74
2019-05-29T06:16:37.096Z,91.72
2019-05-29T06:19:22.181Z,91.76
2019-05-29T06:21:56.773Z,91.64
2019-05-29T06:24:29.292Z,91.93
2019-05-29T06:27:07.842Z,92.06
2019-05-29T06:29:45.157Z,91.78
2019-05-29T06:32:20.812Z,91.86
2019-05-29T06:34:58.816Z,91.76
2019-05-29T06:37:33.599Z,91.53
2019-05-29T06:40:08.032Z,91.34
2019-05-29T06:42:44.732Z,91.89
2019-05-29T06:45:28.823Z,92.15
2019-05-29T06:48:04.095Z,91.92
2019-05-29T06:50:39.261Z,92.09
2019-05-29T06:53:14.672Z,91.87
2019-05-29T06:55:53.835Z,91.42
2019-05-29T06:58:31.333Z,91.54
2019-05-29T07:01:10.726Z,91.32
2019-05-29T07:03:49.589Z,91.09
2019-05-29T07:06:24.176Z,91.54
2019-05-29T07:09:02.623Z,91.58
2019-05-29T07:11:37.703Z,91.54
2019-05-29T07:14:13.216Z,91.50
2019-05-29T07:16:55.650Z,92.18
2019-05-29T07:19:45.137Z,91.86
2019-05-29T07:22:38.921Z,91.68
2019-05-29T07:25:49.813Z,91.81
2019-05-29T07:29:03.086Z,91.45
2019-05-29T07:32:09.762Z,91.64
2019-05-29T07:35:22.602Z,90.95
2019-05-29T07:38:02.783Z,90.96
2019-05-29T07:40:38.401Z,91.19
2019-05-29T07:43:17.096Z,91.43
2019-05-29T07:45:51.783Z,91.21
2019-05-29T07:48:27.363Z,91.56
2019-05-29T07:51:06.893Z,91.02
2019-05-29T07:53:36.085Z,90.91
2019-05-29T07:56:22.148Z,90.90
2019-05-29T07:59:01.831Z,90.59
2019-05-29T08:01:25.683Z,90.68
2019-05-29T08:03:58.542Z,90.45
2019-05-29T08:06:32.846Z,89.93
2019-05-29T08:09:12.502Z,90.50
2019-05-29T08:11:45.661Z,90.46
2019-05-29T08:14:20.813Z,90.65
2019-05-29T08:16:53.983Z,91.17
2019-05-29T08:19:26.612Z,91.03
2019-05-29T08:21:59.292Z,90.64
2019-05-29T08:24:32.033Z,90.38
2019-05-29T08:27:10.671Z,90.62
2019-05-29T08:29:58.191Z,90.34
2019-05-29T08:32:34.498Z,90.22
2019-05-29T08:35:09.998Z,90.30
2019-05-29T08:37:44.862Z,90.27
2019-05-29T08:40:23.462Z,90.27
2019-05-29T08:42:58.112Z,90.32
2019-05-29T08:45:35.623Z,89.66
2019-05-29T08:48:09.722Z,90.05
2019-05-29T08:50:45.690Z,90.03
2019-05-29T08:53:20.092Z,89.89
2019-05-29T08:55:56.027Z,89.84
2019-05-29T08:58:31.276Z,89.78
2019-05-29T09:01:06.116Z,90.00
2019-05-29T09:03:44.867Z,89.94
2019-05-29T09:06:19.760Z,89.95
2019-05-29T09:08:56.741Z,90.16
2019-05-29T09:11:31.821Z,89.59
2019-05-29T09:14:06.772Z,89.20
2019-05-29T09:16:40.850Z,88.96
2019-05-29T09:19:14.413Z,88.91
2019-05-29T09:21:49.721Z,88.94
2019-05-29T09:24:24.033Z,89.00
2019-05-29T09:26:58.324Z,89.15
2019-05-29T09:29:37.592Z,88.60
2019-05-29T09:32:14.840Z,88.41
2019-05-29T09:34:50.246Z,88.17
2019-05-29T09:37:26.853Z,88.50
2019-05-29T09:40:04.633Z,88.40
2019-05-29T09:42:40.746Z,88.54
2019-05-29T09:45:23.433Z,88.78
2019-05-29T09:47:59.192Z,89.08
2019-05-29T09:50:49.335Z,88.98
2019-05-29T09:53:09.161Z,89.30
2019-05-29T09:55:42.772Z,89.40
2019-05-29T09:58:18.995Z,89.32
2019-05-29T10:01:15.876Z,88.93
2019-05-29T10:03:28.545Z,88.86
2019-05-29T10:08:23.528Z,88.80
2019-05-29T10:11:08.441Z,88.77
2019-05-29T10:13:38.837Z,88.82
2019-05-29T10:16:14.444Z,88.63
2019-05-29T10:18:48.293Z,88.42
2019-05-29T10:21:38.638Z,88.08
2019-05-29T10:24:14.794Z,88.31
2019-05-29T10:26:49.854Z,88.08
2019-05-29T10:29:26.592Z,88.16
2019-05-29T10:32:00.515Z,88.60
2019-05-29T10:34:39.073Z,88.31
2019-05-29T10:37:26.375Z,87.37
2019-05-29T10:39:59.965Z,87.95
2019-05-29T10:42:36.903Z,87.49
2019-05-29T10:45:17.792Z,87.67
2019-05-29T10:47:54.169Z,87.81
2019-05-29T10:50:27.277Z,87.63
2019-05-29T10:53:02.681Z,87.23
2019-05-29T10:55:36.371Z,86.36
2019-05-29T10:58:11.383Z,86.03
2019-05-29T11:00:49.158Z,85.98
2019-05-29T11:03:24.592Z,85.52
2019-05-29T11:05:58.516Z,85.33
2019-05-29T11:08:36.151Z,85.17
2019-05-29T11:11:09.961Z,85.52
2019-05-29T11:13:44.763Z,84.86
2019-05-29T11:16:17.332Z,84.60
2019-05-29T11:18:51.237Z,83.55
2019-05-29T11:21:23.992Z,83.04
2019-05-29T11:23:58.187Z,84.32
2019-05-29T11:26:31.293Z,84.18
2019-05-29T11:29:04.936Z,84.89
2019-05-29T11:31:39.183Z,85.04
2019-05-29T11:34:11.963Z,85.27
2019-05-29T11:36:44.986Z,85.90
2019-05-29T11:39:18.513Z,85.90
2019-05-29T11:41:55.229Z,85.78
2019-05-29T11:44:28.423Z,85.72
2019-05-29T11:47:04.104Z,86.08
2019-05-29T11:49:37.527Z,86.27
2019-05-29T11:52:23.645Z,86.38
2019-05-29T11:54:46.004Z,86.16
2019-05-29T11:57:20.704Z,86.41
2019-05-29T12:00:00.079Z,86.78
2019-05-29T12:02:31.570Z,86.52
2019-05-29T12:05:04.397Z,86.83
2019-05-29T12:07:37.763Z,86.82
2019-05-29T12:10:12.312Z,86.90
2019-05-29T12:12:45.966Z,86.54
2019-05-29T12:15:20.723Z,86.44
2019-05-29T12:18:12.448Z,86.79
2019-05-29T12:20:38.879Z,86.89
2019-05-29T12:23:25.821Z,86.58
2019-05-29T12:26:10.305Z,86.50
2019-05-29T12:28:26.135Z,86.29
2019-05-29T12:30:59.481Z,86.10
2019-05-29T12:33:41.533Z,86.13
2019-05-29T12:36:28.605Z,86.54
2019-05-29T12:39:02.166Z,86.60
2019-05-29T12:41:38.760Z,87.04
2019-05-29T12:44:16.173Z,87.39
2019-05-29T12:46:51.020Z,86.76
2019-05-29T12:49:24.304Z,87.43
2019-05-29T12:52:02.462Z,87.70
2019-05-29T12:54:39.902Z,87.85
2019-05-29T12:57:13.094Z,88.01
2019-05-29T12:59:48.113Z,87.31
2019-05-29T13:02:21.133Z,87.03
2019-05-29T13:05:16.358Z,87.38
2019-05-29T13:07:41.431Z,86.61
2019-05-29T13:10:29.375Z,87.43
2019-05-29T13:12:49.033Z,86.78
2019-05-29T13:15:22.273Z,87.04
2019-05-29T13:18:00.959Z,85.50
2019-05-29T13:20:29.171Z,85.22
2019-05-29T13:23:03.628Z,84.98
2019-05-29T13:25:36.683Z,84.44
2019-05-29T13:28:09.303Z,84.08
2019-05-29T13:30:41.913Z,84.19
2019-05-29T13:33:14.546Z,84.45
2019-05-29T13:35:47.214Z,84.71
2019-05-29T13:38:19.762Z,85.12
2019-05-29T13:40:53.397Z,85.36
2019-05-29T13:43:25.953Z,86.01
2019-05-29T13:45:58.684Z,86.80
2019-05-29T13:48:31.333Z,86.36
2019-05-29T13:51:05.381Z,86.39
2019-05-29T13:53:38.377Z,86.23
2019-05-29T13:56:11.136Z,85.24
2019-05-29T13:58:43.657Z,84.86
2019-05-29T14:01:16.459Z,84.14
2019-05-29T14:03:50.661Z,83.91
2019-05-29T14:06:23.950Z,82.88
2019-05-29T14:08:56.719Z,81.49
2019-05-29T14:11:29.566Z,81.50
2019-05-29T14:14:04.070Z,82.17
2019-05-29T14:16:36.283Z,81.74
2019-05-29T14:19:09.464Z,81.53
2019-05-29T14:21:41.953Z,82.61
2019-05-29T14:24:28.158Z,82.72
2019-05-29T14:26:49.537Z,83.34
2019-05-29T14:29:22.225Z,83.07
2019-05-29T14:31:54.918Z,82.97
2019-05-29T14:34:30.386Z,83.17
2019-05-29T14:37:04.931Z,83.31
2019-05-29T14:39:37.503Z,83.68
2019-05-29T14:42:11.805Z,84.45
2019-05-29T14:44:44.652Z,83.91
2019-05-29T14:47:17.563Z,84.24
2019-05-29T14:49:50.233Z,83.85
2019-05-29T14:52:23.044Z,83.72
2019-05-29T14:54:56.394Z,83.41
2019-05-29T14:57:29.412Z,83.50
2019-05-29T15:00:07.035Z,84.01
2019-05-29T15:02:36.932Z,83.68
2019-05-29T15:05:09.965Z,83.62
2019-05-29T15:07:43.213Z,83.38
2019-05-29T15:10:27.490Z,83.10
2019-05-29T15:12:58.240Z,83.19
2019-05-29T15:15:36.472Z,83.16
2019-05-29T15:18:13.701Z,82.74
2019-05-29T15:20:45.772Z,82.28
2019-05-29T15:23:18.383Z,82.55
2019-05-29T15:25:55.242Z,82.74
2019-05-29T15:28:28.450Z,82.64
2019-05-29T15:31:01.077Z,82.80
2019-05-29T15:33:34.046Z,82.34
2019-05-29T15:36:13.270Z,82.17
2019-05-29T15:38:46.272Z,82.39
2019-05-29T15:41:19.044Z,81.91
2019-05-29T15:43:53.615Z,82.13
2019-05-29T15:48:53.293Z,81.74
2019-05-29T15:51:26.123Z,81.58
2019-05-29T15:53:58.910Z,81.05
2019-05-29T15:56:32.153Z,81.33
2019-05-29T15:59:05.272Z,81.78
2019-05-29T16:01:42.414Z,81.75
2019-05-29T16:04:15.798Z,81.77
2019-05-29T16:06:55.103Z,81.65
2019-05-29T16:09:29.444Z,81.46
2019-05-29T16:12:05.363Z,81.13
2019-05-29T16:14:42.484Z,80.55
2019-05-29T16:17:15.603Z,80.11
2019-05-29T16:19:48.844Z,80.24
2019-05-29T16:22:23.952Z,80.31
2019-05-29T16:24:56.763Z,79.39
2019-05-29T16:27:31.119Z,79.96
2019-05-29T16:30:04.596Z,79.46
2019-05-29T16:32:37.940Z,79.62
2019-05-29T16:35:12.944Z,79.94
2019-05-29T16:37:46.365Z,79.92
2019-05-29T16:40:19.933Z,80.05
2019-05-29T16:42:53.241Z,79.67
2019-05-29T16:45:26.723Z,80.12
2019-05-29T16:47:59.792Z,80.44
2019-05-29T16:50:32.563Z,80.96
2019-05-29T16:53:05.212Z,80.86
2019-05-29T16:55:51.065Z,80.58
2019-05-29T16:58:13.247Z,81.30
2019-05-29T17:00:45.992Z,80.85
2019-05-29T17:03:19.687Z,80.47
2019-05-29T17:05:52.442Z,80.15
2019-05-29T17:08:25.106Z,80.60
2019-05-29T17:10:57.513Z,80.51
2019-05-29T17:13:31.463Z,80.58
2019-05-29T17:16:03.842Z,80.59
2019-05-29T17:18:36.499Z,80.57
2019-05-29T17:21:09.364Z,80.17
2019-05-29T17:23:41.875Z,80.14
2019-05-29T17:26:14.710Z,79.94
2019-05-29T17:28:47.945Z,80.27
2019-05-29T17:31:20.912Z,80.80
2019-05-29T17:33:53.962Z,81.11
2019-05-29T17:36:28.679Z,80.56
2019-05-29T17:39:00.623Z,81.10
2019-05-29T17:41:33.962Z,81.63
2019-05-29T17:44:06.708Z,81.83
2019-05-29T17:46:39.833Z,82.01
2019-05-29T17:49:12.943Z,81.32
2019-05-29T17:51:45.801Z,81.13
2019-05-29T17:54:18.353Z,81.24
2019-05-29T17:56:51.882Z,81.44
2019-05-29T17:59:24.692Z,81.61
2019-05-29T18:01:57.567Z,81.59
2019-05-29T18:04:31.513Z,81.85
2019-05-29T18:07:04.002Z,82.15
2019-05-29T18:09:36.662Z,82.89
2019-05-29T18:12:09.443Z,82.90
2019-05-29T18:15:19.725Z,83.10
2019-05-29T18:17:51.303Z,83.56
2019-05-29T18:20:37.051Z,82.97
2019-05-29T18:23:12.242Z,83.73
2019-05-29T18:25:45.232Z,83.87
2019-05-29T18:28:18.182Z,83.92
2019-05-29T18:31:39.469Z,84.00
2019-05-29T18:34:51.764Z,84.19
2019-05-29T18:41:50.962Z,84.75
2019-05-29T18:44:24.804Z,85.33
2019-05-29T18:46:57.326Z,85.38
2019-05-29T18:49:29.813Z,85.38
2019-05-29T18:52:02.302Z,85.07
2019-05-29T18:54:34.928Z,85.45
2019-05-29T18:57:15.350Z,85.68
2019-05-29T18:59:42.253Z,85.93
2019-05-29T19:02:14.946Z,85.72
2019-05-29T19:04:47.443Z,85.84
2019-05-29T19:07:23.724Z,85.73
2019-05-29T19:09:56.862Z,85.82
2019-05-29T19:12:30.051Z,85.86
2019-05-29T19:15:03.173Z,85.71
2019-05-29T19:17:35.762Z,86.07
2019-05-29T19:20:09.350Z,86.17
2019-05-29T19:22:41.833Z,86.38
2019-05-29T19:25:14.912Z,86.59
2019-05-29T19:27:47.891Z,86.27
2019-05-29T19:30:24.865Z,86.15
2019-05-29T19:32:57.712Z,85.89
2019-05-29T19:35:31.626Z,86.14
2019-05-29T19:38:04.436Z,85.99
2019-05-29T19:40:37.113Z,86.00
2019-05-29T19:43:10.351Z,85.76
2019-05-29T19:45:43.252Z,85.73
2019-05-29T19:48:15.912Z,85.82
2019-05-29T19:50:51.944Z,86.20
2019-05-29T19:53:26.864Z,85.98
2019-05-29T19:56:02.003Z,85.84
2019-05-29T19:58:36.135Z,85.76
2019-05-29T20:01:09.193Z,86.12
2019-05-29T20:03:47.887Z,86.03
2019-05-29T20:06:25.372Z,86.43
2019-05-29T20:09:02.623Z,85.80
2019-05-29T20:11:37.865Z,85.70
2019-05-29T20:14:10.555Z,85.94
2019-05-29T20:16:43.150Z,85.67
2019-05-29T20:19:15.712Z,85.67
2019-05-29T20:21:48.213Z,85.35
2019-05-29T20:24:23.112Z,85.54
2019-05-29T20:26:55.652Z,85.46
2019-05-29T20:29:28.262Z,85.41
2019-05-29T20:32:00.883Z,85.04
2019-05-29T20:34:34.643Z,85.46
2019-05-29T20:37:08.325Z,85.18
2019-05-29T20:39:41.015Z,84.60
2019-05-29T20:42:14.125Z,84.09
2019-05-29T20:44:46.634Z,84.13
2019-05-29T20:47:19.494Z,83.70
2019-05-29T20:49:52.492Z,83.42
2019-05-29T20:52:25.152Z,82.93
2019-05-29T20:54:59.088Z,82.28
2019-05-29T20:57:31.803Z,81.99
2019-05-29T21:00:05.782Z,81.96
2019-05-29T21:02:40.506Z,81.76
2019-05-29T21:05:13.061Z,81.75
2019-05-29T21:07:45.647Z,82.00
2019-05-29T21:10:19.623Z,81.72
2019-05-29T21:12:52.373Z,81.89
2019-05-29T21:15:24.974Z,81.21
2019-05-29T21:17:57.751Z,80.92
2019-05-29T21:20:30.682Z,79.22
2019-05-29T21:23:04.063Z,79.98
2019-05-29T21:25:37.073Z,79.42
2019-05-29T21:28:09.613Z,79.32
2019-05-29T21:30:43.942Z,79.33
2019-05-29T21:33:16.483Z,79.33
2019-05-29T21:35:49.083Z,78.66
2019-05-29T21:38:22.422Z,78.08
2019-05-29T21:40:55.142Z,77.58
2019-05-29T21:43:27.767Z,77.19
2019-05-29T21:46:00.608Z,77.32
2019-05-29T21:48:34.102Z,76.94
2019-05-29T21:51:06.896Z,75.81
2019-05-29T21:53:39.392Z,75.91
2019-05-29T21:56:11.894Z,76.01
2019-05-29T21:58:59.981Z,75.88
2019-05-29T22:01:18.525Z,74.65
2019-05-29T22:03:51.306Z,75.74
2019-05-29T22:06:23.983Z,75.76
2019-05-29T22:08:57.515Z,75.90
2019-05-29T22:11:30.403Z,75.60
2019-05-29T22:14:02.743Z,75.64
2019-05-29T22:16:35.534Z,75.61
2019-05-29T22:19:08.194Z,75.35
2019-05-29T22:21:40.632Z,75.39
2019-05-29T22:24:13.072Z,74.95
2019-05-29T22:26:45.643Z,75.26
2019-05-29T22:29:18.673Z,75.16
2019-05-29T22:31:51.395Z,75.30
2019-05-29T22:34:24.134Z,75.36
2019-05-29T22:36:57.525Z,74.99
2019-05-29T22:39:30.662Z,75.44
2019-05-29T22:42:03.073Z,75.41
2019-05-29T22:44:35.533Z,75.07
2019-05-29T22:47:08.032Z,74.92
2019-05-29T22:49:40.623Z,75.23
2019-05-29T22:52:13.212Z,74.82
2019-05-29T22:54:45.682Z,74.77
2019-05-29T22:57:18.194Z,74.89
2019-05-29T22:59:51.754Z,74.76
2019-05-29T23:02:24.533Z,74.80
2019-05-29T23:04:58.346Z,74.18
2019-05-29T23:07:32.015Z,74.74
2019-05-29T23:10:04.723Z,75.08
2019-05-29T23:12:37.693Z,74.95
2019-05-29T23:15:10.826Z,74.78
2019-05-29T23:17:43.372Z,74.92
2019-05-29T23:20:16.122Z,74.70
2019-05-29T23:22:48.822Z,74.55
2019-05-29T23:25:21.573Z,74.39
2019-05-29T23:27:54.883Z,74.58
2019-05-29T23:30:30.473Z,74.58
2019-05-29T23:33:03.392Z,74.60
2019-05-29T23:35:36.801Z,74.77
2019-05-29T23:38:10.807Z,75.00
2019-05-29T23:40:45.613Z,74.42
2019-05-29T23:43:19.070Z,74.48
2019-05-29T23:45:53.282Z,74.59
2019-05-29T23:48:26.505Z,74.49
2019-05-29T23:50:59.787Z,74.54
2019-05-29T23:53:35.366Z,74.48
2019-05-29T23:56:11.635Z,74.40
2019-05-29T23:58:49.381Z,73.87
